createdAt,value
2023-03-18T00:01:07.863Z,101165.14
2023-03-18T00:03:41.496Z,101177.33
2023-03-18T00:06:17.287Z,101173.59
2023-03-18T00:08:51.345Z,101166.57
2023-03-18T00:11:25.019Z,101163.52
2023-03-18T00:13:58.583Z,101175.77
2023-03-18T00:16:31.129Z,101174.14
2023-03-18T00:19:04.721Z,101167.92
2023-03-18T00:21:37.894Z,101142.77
2023-03-18T00:24:12.439Z,101166.02
2023-03-18T00:26:45.916Z,101162.45
2023-03-18T00:29:18.960Z,101161.19
2023-03-18T00:31:51.943Z,101159.95
2023-03-18T00:34:26.834Z,101152.04
2023-03-18T00:37:00.830Z,101136.81
2023-03-18T00:39:34.575Z,101152.53
2023-03-18T00:42:11.547Z,101149.43
2023-03-18T00:44:45.415Z,101150.41
2023-03-18T00:47:18.729Z,101145.06
2023-03-18T00:49:51.901Z,101144.41
2023-03-18T00:52:24.809Z,101143.05
2023-03-18T00:54:58.076Z,101142.59
2023-03-18T00:57:32.487Z,101141.19
2023-03-18T01:00:07.757Z,101128.79
2023-03-18T01:02:42.282Z,101138.86
2023-03-18T01:05:19.178Z,101138.84
2023-03-18T01:07:52.494Z,101141.42
2023-03-18T01:10:25.950Z,101140.02
2023-03-18T01:12:59.524Z,101139.00
2023-03-18T01:15:32.772Z,101142.80
2023-03-18T01:18:05.685Z,101124.27
2023-03-18T01:20:39.764Z,101123.62
2023-03-18T01:23:13.930Z,101142.83
2023-03-18T01:25:47.705Z,101130.15
2023-03-18T01:28:25.071Z,101133.68
2023-03-18T01:30:58.751Z,101143.81
2023-03-18T01:33:32.361Z,101124.79
2023-03-18T01:36:06.275Z,101128.23
2023-03-18T01:38:41.399Z,101124.50
2023-03-18T01:41:17.940Z,101126.71
2023-03-18T01:43:50.959Z,101141.91
2023-03-18T01:46:46.025Z,101140.94
2023-03-18T01:49:24.845Z,101119.90
2023-03-18T01:52:03.198Z,101135.77
2023-03-18T01:54:40.970Z,101136.35
2023-03-18T01:57:14.308Z,101137.17
2023-03-18T01:59:50.679Z,101133.39
2023-03-18T02:02:24.043Z,101136.73
2023-03-18T02:05:00.090Z,101135.59
2023-03-18T02:07:35.291Z,101127.63
2023-03-18T02:10:13.748Z,101143.31
2023-03-18T02:12:51.966Z,101139.83
2023-03-18T02:15:36.606Z,101139.64
2023-03-18T02:18:26.297Z,101135.09
2023-03-18T02:21:18.678Z,101136.82
2023-03-18T02:24:14.876Z,101137.73
2023-03-18T02:27:07.181Z,101133.41
2023-03-18T02:29:47.645Z,101139.20
2023-03-18T02:32:23.960Z,101121.05
2023-03-18T02:34:58.245Z,101139.15
2023-03-18T02:37:31.609Z,101136.35
2023-03-18T02:40:20.271Z,101113.02
2023-03-18T02:42:53.803Z,101127.45
2023-03-18T02:45:32.452Z,101130.77
2023-03-18T02:48:41.122Z,101129.12
2023-03-18T02:51:15.333Z,101120.96
2023-03-18T02:53:49.178Z,101105.29
2023-03-18T02:56:21.946Z,101135.49
2023-03-18T02:58:55.146Z,101136.14
2023-03-18T03:01:28.628Z,101132.03
2023-03-18T03:04:01.985Z,101127.46
2023-03-18T03:06:34.818Z,101129.67
2023-03-18T03:09:09.356Z,101111.96
2023-03-18T03:11:43.393Z,101129.34
2023-03-18T03:14:19.884Z,101129.40
2023-03-18T03:16:55.229Z,101124.69
2023-03-18T03:19:33.964Z,101127.73
2023-03-18T03:22:07.443Z,101125.63
2023-03-18T03:24:40.592Z,101124.77
2023-03-18T03:27:14.115Z,101122.79
2023-03-18T03:29:47.565Z,101132.67
2023-03-18T03:32:20.554Z,101133.38
2023-03-18T03:34:55.246Z,101140.98
2023-03-18T03:37:28.198Z,101133.42
2023-03-18T03:40:01.044Z,101140.59
2023-03-18T03:42:34.386Z,101140.89
2023-03-18T03:45:10.451Z,101138.85
2023-03-18T03:47:44.558Z,101131.88
2023-03-18T03:50:18.928Z,101131.94
2023-03-18T03:52:53.537Z,101132.40
2023-03-18T03:55:27.468Z,101134.05
2023-03-18T03:58:00.488Z,101121.06
2023-03-18T04:00:33.994Z,101133.80
2023-03-18T04:03:07.189Z,101136.23
2023-03-18T04:05:42.345Z,101141.27
2023-03-18T04:08:15.410Z,101132.36
2023-03-18T04:10:49.444Z,101133.33
2023-03-18T04:13:22.800Z,101141.27
2023-03-18T04:15:56.811Z,101142.42
2023-03-18T04:18:30.355Z,101145.38
2023-03-18T04:21:03.761Z,101146.55
2023-03-18T04:23:49.754Z,101136.90
2023-03-18T04:26:23.091Z,101152.16
2023-03-18T04:28:56.256Z,101151.22
2023-03-18T04:31:29.776Z,101151.69
2023-03-18T04:34:02.450Z,101147.71
2023-03-18T04:36:35.804Z,101142.09
2023-03-18T04:39:10.052Z,101138.27
2023-03-18T04:41:43.612Z,101110.55
2023-03-18T04:44:17.679Z,101141.05
2023-03-18T04:47:03.350Z,101142.45
2023-03-18T04:49:38.327Z,101113.51
2023-03-18T04:52:11.817Z,101117.91
2023-03-18T04:54:45.894Z,101147.97
2023-03-18T04:57:20.218Z,101145.05
2023-03-18T05:00:00.142Z,101153.44
2023-03-18T05:02:33.539Z,101153.33
2023-03-18T05:05:07.214Z,101154.59
2023-03-18T05:07:44.542Z,101153.64
2023-03-18T05:10:20.150Z,101157.20
2023-03-18T05:12:53.578Z,101144.91
2023-03-18T05:15:35.420Z,101162.34
2023-03-18T05:18:09.290Z,101161.07
2023-03-18T05:20:43.174Z,101163.09
2023-03-18T05:23:19.320Z,101166.77
2023-03-18T05:25:58.213Z,101158.07
2023-03-18T05:28:32.382Z,101158.07
2023-03-18T05:31:18.978Z,101167.80
2023-03-18T05:33:52.455Z,101165.52
2023-03-18T05:36:26.282Z,101152.33
2023-03-18T05:39:04.355Z,101157.95
2023-03-18T05:41:38.524Z,101168.11
2023-03-18T05:44:15.336Z,101154.73
2023-03-18T05:46:49.000Z,101143.52
2023-03-18T05:49:29.326Z,101172.05
2023-03-18T05:52:20.185Z,101176.11
2023-03-18T05:54:54.852Z,101165.91
2023-03-18T05:57:33.075Z,101169.31
2023-03-18T06:00:09.538Z,101183.25
2023-03-18T06:02:50.354Z,101185.05
2023-03-18T06:05:25.024Z,101190.17
2023-03-18T06:07:58.501Z,101191.71
2023-03-18T06:10:32.109Z,101194.38
2023-03-18T06:13:06.276Z,101190.78
2023-03-18T06:15:39.611Z,101203.73
2023-03-18T06:18:12.839Z,101205.22
2023-03-18T06:20:46.366Z,101197.48
2023-03-18T06:23:19.805Z,101196.89
2023-03-18T06:25:53.266Z,101197.36
2023-03-18T06:28:30.000Z,101200.31
2023-03-18T06:31:05.017Z,101170.52
2023-03-18T06:33:38.826Z,101203.14
2023-03-18T06:36:13.269Z,101188.73
2023-03-18T06:38:51.404Z,101189.46
2023-03-18T06:41:24.797Z,101207.76
2023-03-18T06:44:07.925Z,101204.45
2023-03-18T06:46:43.714Z,101191.94
2023-03-18T06:49:18.356Z,101204.29
2023-03-18T06:51:58.649Z,101189.73
2023-03-18T06:54:31.560Z,101187.83
2023-03-18T06:57:07.055Z,101193.80
2023-03-18T06:59:41.185Z,101196.05
2023-03-18T07:02:15.724Z,101208.49
2023-03-18T07:04:48.735Z,101201.80
2023-03-18T07:07:22.824Z,101204.21
2023-03-18T07:09:56.002Z,101207.29
2023-03-18T07:12:29.446Z,101211.23
2023-03-18T07:15:02.860Z,101222.06
2023-03-18T07:17:35.691Z,101221.34
2023-03-18T07:20:09.223Z,101217.30
2023-03-18T07:22:42.840Z,101217.01
2023-03-18T07:25:16.378Z,101213.55
2023-03-18T07:27:49.409Z,101214.52
2023-03-18T07:30:22.501Z,101188.33
2023-03-18T07:32:56.256Z,101192.61
2023-03-18T07:35:30.080Z,101207.73
2023-03-18T07:38:03.813Z,101193.56
2023-03-18T07:40:37.026Z,101186.75
2023-03-18T07:43:10.360Z,101208.04
2023-03-18T07:45:43.815Z,101207.07
2023-03-18T07:48:17.941Z,101212.77
2023-03-18T07:50:51.320Z,101208.83
2023-03-18T07:53:24.771Z,101210.86
2023-03-18T07:55:57.655Z,101208.45
2023-03-18T07:58:30.915Z,101203.02
2023-03-18T08:01:04.519Z,101204.39
2023-03-18T08:03:37.761Z,101216.98
2023-03-18T08:06:11.912Z,101213.79
2023-03-18T08:08:46.622Z,101216.70
2023-03-18T08:11:19.955Z,101218.81
2023-03-18T08:13:53.111Z,101216.14
2023-03-18T08:16:27.648Z,101215.28
2023-03-18T08:19:00.746Z,101213.60
2023-03-18T08:21:33.914Z,101202.02
2023-03-18T08:24:07.382Z,101219.17
2023-03-18T08:26:40.866Z,101208.70
2023-03-18T08:29:14.204Z,101198.64
2023-03-18T08:31:48.144Z,101217.71
2023-03-18T08:34:22.382Z,101226.98
2023-03-18T08:36:56.158Z,101226.44
2023-03-18T08:39:29.322Z,101230.29
2023-03-18T08:42:04.864Z,101228.47
2023-03-18T08:44:37.759Z,101231.64
2023-03-18T08:47:11.119Z,101225.74
2023-03-18T08:49:45.114Z,101235.95
2023-03-18T08:52:18.455Z,101233.40
2023-03-18T08:54:51.760Z,101228.20
2023-03-18T08:57:25.423Z,101237.02
2023-03-18T08:59:58.870Z,101223.10
2023-03-18T09:02:32.421Z,101219.91
2023-03-18T09:05:05.840Z,101216.00
2023-03-18T09:07:39.101Z,101211.83
2023-03-18T09:10:15.395Z,101214.17
2023-03-18T09:12:50.647Z,101227.34
2023-03-18T09:15:24.211Z,101226.21
2023-03-18T09:18:11.761Z,101225.11
2023-03-18T09:20:49.449Z,101231.80
2023-03-18T09:23:23.131Z,101229.66
2023-03-18T09:25:58.237Z,101231.41
2023-03-18T09:28:32.066Z,101223.40
2023-03-18T09:31:06.560Z,101234.49
2023-03-18T09:33:42.277Z,101224.97
2023-03-18T09:36:16.109Z,101234.67
2023-03-18T09:38:50.156Z,101234.45
2023-03-18T09:41:45.265Z,101225.33
2023-03-18T09:44:28.226Z,101233.56
2023-03-18T09:47:36.293Z,101240.68
2023-03-18T09:50:44.248Z,101245.67
2023-03-18T09:53:54.858Z,101247.35
2023-03-18T09:56:35.263Z,101253.45
2023-03-18T09:59:26.290Z,101252.01
2023-03-18T10:02:02.794Z,101250.05
2023-03-18T10:04:49.309Z,101248.17
2023-03-18T10:07:31.321Z,101247.38
2023-03-18T10:10:11.964Z,101245.89
2023-03-18T10:12:54.574Z,101247.05
2023-03-18T10:15:42.842Z,101251.62
2023-03-18T10:18:34.294Z,101234.43
2023-03-18T10:21:48.960Z,101245.46
2023-03-18T10:24:39.955Z,101246.70
2023-03-18T10:27:48.342Z,101247.42
2023-03-18T10:30:34.696Z,101232.70
2023-03-18T10:33:39.233Z,101228.83
2023-03-18T10:36:28.102Z,101228.58
2023-03-18T10:39:04.231Z,101239.60
2023-03-18T10:41:40.022Z,101236.02
2023-03-18T10:44:37.605Z,101233.77
2023-03-18T10:47:35.622Z,101222.27
2023-03-18T10:50:38.736Z,101214.09
2023-03-18T10:53:42.345Z,101224.27
2023-03-18T10:56:17.495Z,101217.18
2023-03-18T10:58:54.611Z,101213.52
2023-03-18T11:01:31.240Z,101220.11
2023-03-18T11:04:09.029Z,101216.11
2023-03-18T11:07:15.709Z,101216.20
2023-03-18T11:09:49.454Z,101213.26
2023-03-18T11:12:32.720Z,101204.55
2023-03-18T11:15:13.808Z,101201.36
2023-03-18T11:17:55.196Z,101198.51
2023-03-18T11:20:50.273Z,101202.69
2023-03-18T11:24:23.110Z,101202.19
2023-03-18T11:27:02.217Z,101187.77
2023-03-18T11:29:37.424Z,101199.41
2023-03-18T11:32:32.019Z,101197.75
2023-03-18T11:35:07.992Z,101202.84
2023-03-18T11:37:43.000Z,101202.98
2023-03-18T11:40:19.180Z,101198.79
2023-03-18T11:43:03.610Z,101191.09
2023-03-18T11:45:55.167Z,101199.92
2023-03-18T11:48:32.061Z,101195.27
2023-03-18T11:51:14.742Z,101187.38
2023-03-18T11:54:06.890Z,101169.38
2023-03-18T11:57:05.677Z,101182.45
2023-03-18T11:59:44.289Z,101180.31
2023-03-18T12:02:52.074Z,101178.21
2023-03-18T12:05:25.036Z,101175.95
2023-03-18T12:08:15.930Z,101173.33
2023-03-18T12:11:20.760Z,101172.30
2023-03-18T12:14:21.450Z,101165.76
2023-03-18T12:17:22.591Z,101168.08
2023-03-18T12:20:36.962Z,101165.04
2023-03-18T12:23:40.278Z,101167.05
2023-03-18T12:26:31.857Z,101172.14
2023-03-18T12:29:29.245Z,101170.15
2023-03-18T12:32:16.448Z,101169.17
2023-03-18T12:35:08.174Z,101170.23
2023-03-18T12:37:43.833Z,101164.95
2023-03-18T12:40:23.445Z,101163.29
2023-03-18T12:43:31.815Z,101162.27
2023-03-18T12:46:23.026Z,101158.70
2023-03-18T12:49:16.893Z,101155.30
2023-03-18T12:51:56.167Z,101155.51
2023-03-18T12:54:32.907Z,101153.19
2023-03-18T12:57:29.461Z,101150.64
2023-03-18T13:00:11.540Z,101145.94
2023-03-18T13:02:46.504Z,101134.39
2023-03-18T13:05:28.131Z,101151.98
2023-03-18T13:08:21.522Z,101148.75
2023-03-18T13:11:13.988Z,101150.15
2023-03-18T13:13:52.363Z,101145.86
2023-03-18T13:16:26.037Z,101149.09
2023-03-18T13:19:04.482Z,101142.45
2023-03-18T13:21:44.595Z,101144.50
2023-03-18T13:24:29.433Z,101146.48
2023-03-18T13:27:32.276Z,101143.42
2023-03-18T13:30:23.312Z,101141.38
2023-03-18T13:33:11.573Z,101138.89
2023-03-18T13:35:57.142Z,101140.44
2023-03-18T13:38:46.977Z,101138.20
2023-03-18T13:41:37.793Z,101134.91
2023-03-18T13:44:45.854Z,101129.31
2023-03-18T13:47:24.327Z,101133.14
2023-03-18T13:50:29.836Z,101128.75
2023-03-18T13:53:04.283Z,101129.93
2023-03-18T13:55:48.045Z,101124.58
2023-03-18T13:58:31.395Z,101123.33
2023-03-18T14:01:18.165Z,101125.23
2023-03-18T14:03:50.854Z,101119.13
2023-03-18T14:06:40.278Z,101108.09
2023-03-18T14:09:34.694Z,101125.55
2023-03-18T14:12:33.802Z,101115.21
2023-03-18T14:15:13.797Z,101114.46
2023-03-18T14:17:49.867Z,101123.36
2023-03-18T14:20:24.148Z,101122.52
2023-03-18T14:23:36.029Z,101121.70
2023-03-18T14:26:27.396Z,101118.66
2023-03-18T14:29:09.961Z,101115.82
2023-03-18T14:31:43.429Z,101112.90
2023-03-18T14:34:22.150Z,101120.73
2023-03-18T14:36:57.427Z,101122.27
2023-03-18T14:39:49.661Z,101118.90
2023-03-18T14:42:46.487Z,101110.33
2023-03-18T14:45:30.301Z,101111.80
2023-03-18T14:48:12.288Z,101115.49
2023-03-18T14:50:51.086Z,101107.25
2023-03-18T14:53:32.879Z,101112.39
2023-03-18T14:56:06.602Z,101114.26
2023-03-18T14:58:39.609Z,101114.76
2023-03-18T15:01:18.814Z,101115.59
2023-03-18T15:03:55.905Z,101114.91
2023-03-18T15:06:30.660Z,101115.20
2023-03-18T15:09:26.349Z,101112.95
2023-03-18T15:12:00.496Z,101116.39
2023-03-18T15:14:34.915Z,101099.04
2023-03-18T15:17:18.461Z,101100.89
2023-03-18T15:19:52.549Z,101113.71
2023-03-18T15:22:29.356Z,101108.89
2023-03-18T15:25:09.282Z,101111.38
2023-03-18T15:27:44.481Z,101123.44
2023-03-18T15:30:35.504Z,101110.55
2023-03-18T15:33:21.202Z,101126.52
2023-03-18T15:36:17.279Z,101130.10
2023-03-18T15:38:52.908Z,101131.74
2023-03-18T15:41:27.733Z,101115.17
2023-03-18T15:44:00.833Z,101133.80
2023-03-18T15:46:35.377Z,101120.48
2023-03-18T15:49:12.902Z,101137.17
2023-03-18T15:51:50.235Z,101127.83
2023-03-18T15:54:43.615Z,101142.86
2023-03-18T15:57:43.843Z,101147.41
2023-03-18T16:00:17.398Z,101146.71
2023-03-18T16:02:50.939Z,101147.42
2023-03-18T16:05:29.624Z,101151.13
2023-03-18T16:08:03.174Z,101136.24
2023-03-18T16:10:37.704Z,101149.09
2023-03-18T16:13:20.174Z,101138.27
2023-03-18T16:15:53.175Z,101148.27
2023-03-18T16:18:26.517Z,101139.89
2023-03-18T16:20:59.846Z,101158.61
2023-03-18T16:23:33.354Z,101162.13
2023-03-18T16:26:13.213Z,101154.25
2023-03-18T16:28:48.807Z,101160.19
2023-03-18T16:31:24.437Z,101159.35
2023-03-18T16:33:58.091Z,101162.91
2023-03-18T16:36:36.012Z,101165.12
2023-03-18T16:39:21.088Z,101167.49
2023-03-18T16:41:55.383Z,101167.95
2023-03-18T16:44:29.038Z,101163.30
2023-03-18T16:47:03.739Z,101166.45
2023-03-18T16:49:38.033Z,101169.76
2023-03-18T16:52:14.724Z,101154.70
2023-03-18T16:54:48.768Z,101172.40
2023-03-18T16:57:24.653Z,101172.92
2023-03-18T16:59:59.714Z,101174.04
2023-03-18T17:02:37.770Z,101177.20
2023-03-18T17:05:19.639Z,101178.63
2023-03-18T17:07:53.693Z,101175.36
2023-03-18T17:10:29.605Z,101175.48
2023-03-18T17:13:06.708Z,101177.86
2023-03-18T17:15:42.551Z,101178.92
2023-03-18T17:18:22.042Z,101177.55
2023-03-18T17:20:55.867Z,101178.41
2023-03-18T17:23:30.078Z,101179.33
2023-03-18T17:26:05.197Z,101178.77
2023-03-18T17:28:45.895Z,101178.63
2023-03-18T17:31:21.364Z,101175.52
2023-03-18T17:33:54.971Z,101182.16
2023-03-18T17:36:28.942Z,101187.52
2023-03-18T17:39:02.626Z,101190.85
2023-03-18T17:41:36.278Z,101192.58
2023-03-18T17:44:35.398Z,101188.72
2023-03-18T17:47:10.369Z,101191.27
2023-03-18T17:49:43.469Z,101190.14
2023-03-18T17:52:21.801Z,101197.77
2023-03-18T17:54:56.439Z,101196.02
2023-03-18T17:57:29.606Z,101196.43
2023-03-18T18:00:02.794Z,101186.40
2023-03-18T18:02:43.426Z,101198.45
2023-03-18T18:05:21.306Z,101200.91
2023-03-18T18:07:54.721Z,101197.82
2023-03-18T18:10:28.506Z,101198.13
2023-03-18T18:13:03.223Z,101199.66
2023-03-18T18:15:36.390Z,101203.33
2023-03-18T18:18:27.303Z,101201.41
2023-03-18T18:21:02.662Z,101199.98
2023-03-18T18:23:37.660Z,101204.03
2023-03-18T18:26:14.004Z,101190.89
2023-03-18T18:28:52.421Z,101201.90
2023-03-18T18:31:26.058Z,101193.25
2023-03-18T18:33:59.392Z,101208.73
2023-03-18T18:36:32.941Z,101211.73
2023-03-18T18:39:06.084Z,101211.66
2023-03-18T18:41:40.984Z,101209.23
2023-03-18T18:44:14.425Z,101194.83
2023-03-18T18:46:48.322Z,101213.67
2023-03-18T18:49:23.978Z,101209.80
2023-03-18T18:51:58.573Z,101204.91
2023-03-18T18:54:32.196Z,101210.59
2023-03-18T18:57:05.596Z,101195.65
2023-03-18T18:59:38.903Z,101211.11
2023-03-18T19:02:36.853Z,101194.51
2023-03-18T19:05:10.895Z,101193.83
2023-03-18T19:07:45.886Z,101210.91
2023-03-18T19:10:19.904Z,101207.70
2023-03-18T19:12:53.217Z,101212.12
2023-03-18T19:15:26.435Z,101210.41
2023-03-18T19:17:59.857Z,101199.02
2023-03-18T19:20:34.171Z,101211.93
2023-03-18T19:23:14.468Z,101204.63
2023-03-18T19:25:48.167Z,101211.64
2023-03-18T19:28:57.581Z,101209.08
2023-03-18T19:31:35.601Z,101212.52
2023-03-18T19:34:18.846Z,101196.43
2023-03-18T19:36:57.441Z,101208.44
2023-03-18T19:39:31.080Z,101210.96
2023-03-18T19:42:04.284Z,101211.94
2023-03-18T19:44:37.960Z,101202.38
2023-03-18T19:47:35.260Z,101203.19
2023-03-18T19:50:19.146Z,101197.77
2023-03-18T19:52:53.675Z,101199.80
2023-03-18T19:55:26.675Z,101220.83
2023-03-18T19:57:59.998Z,101222.88
2023-03-18T20:00:32.964Z,101222.16
2023-03-18T20:03:08.944Z,101219.83
2023-03-18T20:05:42.142Z,101225.46
2023-03-18T20:08:15.621Z,101225.34
2023-03-18T20:10:48.733Z,101226.35
2023-03-18T20:13:22.214Z,101212.72
2023-03-18T20:15:55.283Z,101211.15
2023-03-18T20:18:28.357Z,101224.33
2023-03-18T20:21:01.706Z,101218.06
2023-03-18T20:23:35.032Z,101222.30
2023-03-18T20:26:08.020Z,101218.99
2023-03-18T20:28:43.971Z,101211.99
2023-03-18T20:31:17.591Z,101211.94
2023-03-18T20:33:51.070Z,101222.14
2023-03-18T20:36:24.088Z,101222.15
2023-03-18T20:38:57.620Z,101218.34
2023-03-18T20:41:31.935Z,101220.80
2023-03-18T20:44:05.653Z,101224.63
2023-03-18T20:46:38.652Z,101220.02
2023-03-18T20:49:11.675Z,101221.67
2023-03-18T20:51:44.846Z,101206.06
2023-03-18T20:54:26.022Z,101216.15
2023-03-18T20:56:59.496Z,101199.55
2023-03-18T20:59:32.739Z,101202.52
2023-03-18T21:02:05.775Z,101198.73
2023-03-18T21:04:38.934Z,101206.79
2023-03-18T21:07:15.266Z,101213.73
2023-03-18T21:09:48.157Z,101211.14
2023-03-18T21:12:22.767Z,101210.33
2023-03-18T21:14:56.537Z,101212.77
2023-03-18T21:17:30.875Z,101208.30
2023-03-18T21:20:19.354Z,101196.98
2023-03-18T21:22:58.103Z,101209.33
2023-03-18T21:25:32.551Z,101197.45
2023-03-18T21:28:05.601Z,101196.64
2023-03-18T21:30:38.972Z,101202.26
2023-03-18T21:33:35.231Z,101199.42
2023-03-18T21:36:08.869Z,101197.20
2023-03-18T21:38:41.861Z,101196.59
2023-03-18T21:41:31.735Z,101194.51
2023-03-18T21:44:04.859Z,101195.27
2023-03-18T21:46:38.458Z,101196.98
2023-03-18T21:49:11.637Z,101194.49
2023-03-18T21:51:45.062Z,101194.27
2023-03-18T21:54:22.341Z,101195.36
2023-03-18T21:56:55.855Z,101195.75
2023-03-18T21:59:29.084Z,101193.55
2023-03-18T22:02:02.359Z,101174.02
2023-03-18T22:04:36.107Z,101172.30
2023-03-18T22:07:12.665Z,101179.06
2023-03-18T22:09:46.316Z,101178.68
2023-03-18T22:12:52.229Z,101185.80
2023-03-18T22:15:28.075Z,101177.58
2023-03-18T22:18:01.802Z,101179.98
2023-03-18T22:20:35.752Z,101168.95
2023-03-18T22:23:19.728Z,101166.66
2023-03-18T22:25:55.277Z,101175.74
2023-03-18T22:28:29.756Z,101177.09
2023-03-18T22:31:03.878Z,101173.70
2023-03-18T22:33:37.339Z,101172.12
2023-03-18T22:36:17.699Z,101159.19
2023-03-18T22:38:51.506Z,101162.58
2023-03-18T22:41:31.805Z,101174.80
2023-03-18T22:44:05.333Z,101154.25
2023-03-18T22:46:39.083Z,101161.43
2023-03-18T22:49:12.386Z,101164.91
2023-03-18T22:51:45.691Z,101172.14
2023-03-18T22:54:21.254Z,101168.63
2023-03-18T22:56:54.329Z,101165.55
2023-03-18T22:59:27.602Z,101174.83
2023-03-18T23:02:00.961Z,101174.69
2023-03-18T23:04:35.783Z,101174.05
2023-03-18T23:07:10.480Z,101163.37
2023-03-18T23:09:56.114Z,101160.80
2023-03-18T23:12:33.033Z,101169.70
2023-03-18T23:15:06.400Z,101170.84
2023-03-18T23:17:39.341Z,101157.77
2023-03-18T23:20:14.241Z,101161.17
2023-03-18T23:22:47.642Z,101156.33
2023-03-18T23:25:21.268Z,101174.02
2023-03-18T23:27:54.347Z,101170.32
2023-03-18T23:30:27.412Z,101170.22
2023-03-18T23:33:01.235Z,101155.96
2023-03-18T23:35:35.165Z,101173.80
2023-03-18T23:38:08.895Z,101168.30
2023-03-18T23:40:42.101Z,101170.73
2023-03-18T23:43:15.165Z,101166.94
2023-03-18T23:45:48.640Z,101161.91
2023-03-18T23:48:21.889Z,101162.00
2023-03-18T23:50:55.004Z,101161.45
2023-03-18T23:53:28.296Z,101161.76
2023-03-18T23:56:06.934Z,101148.41
2023-03-18T23:58:41.035Z,101158.60
